sensor_id;sensor_type;location;lat;lon;timestamp;P1;durP1;ratioP1;P2;durP2;ratioP2
35326;SDS011;21436;52.348;20.928;2022-07-12T00:00:24;5.88;;;4.80;;
35326;SDS011;21436;52.348;20.928;2022-07-12T00:03:04;5.07;;;4.57;;
35326;SDS011;21436;52.348;20.928;2022-07-12T00:05:31;5.75;;;4.72;;
35326;SDS011;21436;52.348;20.928;2022-07-12T00:07:59;5.57;;;5.00;;
35326;SDS011;21436;52.348;20.928;2022-07-12T00:10:26;5.80;;;4.68;;
35326;SDS011;21436;52.348;20.928;2022-07-12T00:12:54;6.32;;;4.90;;
35326;SDS011;21436;52.348;20.928;2022-07-12T00:15:22;6.65;;;4.90;;
35326;SDS011;21436;52.348;20.928;2022-07-12T00:17:49;5.57;;;5.07;;
35326;SDS011;21436;52.348;20.928;2022-07-12T00:20:17;10.43;;;5.88;;
35326;SDS011;21436;52.348;20.928;2022-07-12T00:22:44;9.65;;;5.70;;
35326;SDS011;21436;52.348;20.928;2022-07-12T00:25:13;6.10;;;5.28;;
35326;SDS011;21436;52.348;20.928;2022-07-12T00:27:41;8.88;;;6.05;;
35326;SDS011;21436;52.348;20.928;2022-07-12T00:30:08;8.82;;;6.03;;
35326;SDS011;21436;52.348;20.928;2022-07-12T00:32:36;6.93;;;5.57;;
35326;SDS011;21436;52.348;20.928;2022-07-12T00:35:04;10.65;;;5.60;;
35326;SDS011;21436;52.348;20.928;2022-07-12T00:37:32;6.10;;;5.50;;
35326;SDS011;21436;52.348;20.928;2022-07-12T00:40:00;7.05;;;5.10;;
35326;SDS011;21436;52.348;20.928;2022-07-12T00:42:28;6.20;;;5.57;;
35326;SDS011;21436;52.348;20.928;2022-07-12T00:44:55;6.72;;;4.65;;
35326;SDS011;21436;52.348;20.928;2022-07-12T00:47:36;8.55;;;6.00;;
35326;SDS011;21436;52.348;20.928;2022-07-12T00:50:06;7.85;;;5.45;;
35326;SDS011;21436;52.348;20.928;2022-07-12T00:52:35;9.13;;;6.22;;
35326;SDS011;21436;52.348;20.928;2022-07-12T00:55:06;6.28;;;5.68;;
35326;SDS011;21436;52.348;20.928;2022-07-12T00:57:35;9.20;;;6.03;;
35326;SDS011;21436;52.348;20.928;2022-07-12T01:00:04;9.20;;;6.47;;
35326;SDS011;21436;52.348;20.928;2022-07-12T01:02:36;6.10;;;5.50;;
35326;SDS011;21436;52.348;20.928;2022-07-12T01:05:04;6.70;;;5.22;;
35326;SDS011;21436;52.348;20.928;2022-07-12T01:07:33;9.73;;;6.40;;
35326;SDS011;21436;52.348;20.928;2022-07-12T01:10:02;7.25;;;6.30;;
35326;SDS011;21436;52.348;20.928;2022-07-12T01:12:30;8.80;;;7.15;;
35326;SDS011;21436;52.348;20.928;2022-07-12T01:14:58;10.77;;;7.13;;
35326;SDS011;21436;52.348;20.928;2022-07-12T01:17:26;10.10;;;6.53;;
35326;SDS011;21436;52.348;20.928;2022-07-12T01:19:55;8.10;;;6.47;;
35326;SDS011;21436;52.348;20.928;2022-07-12T01:22:27;12.95;;;6.80;;
35326;SDS011;21436;52.348;20.928;2022-07-12T01:24:59;9.85;;;6.88;;
35326;SDS011;21436;52.348;20.928;2022-07-12T01:27:27;10.70;;;7.18;;
35326;SDS011;21436;52.348;20.928;2022-07-12T01:29:55;9.88;;;7.10;;
35326;SDS011;21436;52.348;20.928;2022-07-12T01:32:23;9.90;;;7.20;;
35326;SDS011;21436;52.348;20.928;2022-07-12T01:37:22;8.25;;;6.50;;
35326;SDS011;21436;52.348;20.928;2022-07-12T01:39:51;8.07;;;7.18;;
35326;SDS011;21436;52.348;20.928;2022-07-12T01:42:20;9.68;;;7.32;;
35326;SDS011;21436;52.348;20.928;2022-07-12T01:44:49;10.52;;;7.22;;
35326;SDS011;21436;52.348;20.928;2022-07-12T01:47:18;11.65;;;7.60;;
35326;SDS011;21436;52.348;20.928;2022-07-12T01:49:46;12.88;;;7.47;;
35326;SDS011;21436;52.348;20.928;2022-07-12T01:52:13;10.50;;;8.00;;
35326;SDS011;21436;52.348;20.928;2022-07-12T01:54:42;13.98;;;8.18;;
35326;SDS011;21436;52.348;20.928;2022-07-12T01:57:09;16.02;;;9.30;;
35326;SDS011;21436;52.348;20.928;2022-07-12T01:59:37;14.43;;;8.70;;
35326;SDS011;21436;52.348;20.928;2022-07-12T02:02:05;11.93;;;7.68;;
35326;SDS011;21436;52.348;20.928;2022-07-12T02:04:34;14.45;;;8.10;;
35326;SDS011;21436;52.348;20.928;2022-07-12T02:07:03;13.60;;;8.68;;
35326;SDS011;21436;52.348;20.928;2022-07-12T02:09:32;11.20;;;7.93;;
35326;SDS011;21436;52.348;20.928;2022-07-12T02:12:00;13.23;;;8.60;;
35326;SDS011;21436;52.348;20.928;2022-07-12T02:14:27;10.50;;;8.40;;
35326;SDS011;21436;52.348;20.928;2022-07-12T02:16:55;14.38;;;9.38;;
35326;SDS011;21436;52.348;20.928;2022-07-12T02:19:23;20.80;;;9.00;;
35326;SDS011;21436;52.348;20.928;2022-07-12T02:21:50;13.98;;;8.40;;
35326;SDS011;21436;52.348;20.928;2022-07-12T02:24:18;11.68;;;8.45;;
35326;SDS011;21436;52.348;20.928;2022-07-12T02:26:46;11.50;;;9.27;;
35326;SDS011;21436;52.348;20.928;2022-07-12T02:29:13;16.27;;;9.13;;
35326;SDS011;21436;52.348;20.928;2022-07-12T02:31:41;10.25;;;7.97;;
35326;SDS011;21436;52.348;20.928;2022-07-12T02:34:09;21.60;;;9.20;;
35326;SDS011;21436;52.348;20.928;2022-07-12T02:36:36;13.82;;;8.02;;
35326;SDS011;21436;52.348;20.928;2022-07-12T02:39:04;12.65;;;8.25;;
35326;SDS011;21436;52.348;20.928;2022-07-12T02:41:31;14.90;;;8.02;;
35326;SDS011;21436;52.348;20.928;2022-07-12T02:43:59;11.73;;;7.88;;
35326;SDS011;21436;52.348;20.928;2022-07-12T02:46:27;12.55;;;7.45;;
35326;SDS011;21436;52.348;20.928;2022-07-12T02:48:54;7.70;;;6.88;;
35326;SDS011;21436;52.348;20.928;2022-07-12T02:51:22;12.48;;;7.80;;
35326;SDS011;21436;52.348;20.928;2022-07-12T02:53:50;8.93;;;7.05;;
35326;SDS011;21436;52.348;20.928;2022-07-12T02:56:17;8.85;;;7.13;;
35326;SDS011;21436;52.348;20.928;2022-07-12T02:58:44;11.13;;;7.30;;
35326;SDS011;21436;52.348;20.928;2022-07-12T03:01:12;13.93;;;7.15;;
35326;SDS011;21436;52.348;20.928;2022-07-12T03:03:41;12.73;;;7.55;;
35326;SDS011;21436;52.348;20.928;2022-07-12T03:06:08;11.77;;;6.80;;
35326;SDS011;21436;52.348;20.928;2022-07-12T03:08:36;11.15;;;7.00;;
35326;SDS011;21436;52.348;20.928;2022-07-12T03:11:04;11.60;;;6.97;;
35326;SDS011;21436;52.348;20.928;2022-07-12T03:13:31;12.18;;;7.38;;
35326;SDS011;21436;52.348;20.928;2022-07-12T03:15:59;9.63;;;6.88;;
35326;SDS011;21436;52.348;20.928;2022-07-12T03:18:27;8.35;;;7.10;;
35326;SDS011;21436;52.348;20.928;2022-07-12T03:20:54;8.35;;;6.68;;
35326;SDS011;21436;52.348;20.928;2022-07-12T03:23:22;11.82;;;7.40;;
35326;SDS011;21436;52.348;20.928;2022-07-12T03:25:49;8.15;;;5.88;;
35326;SDS011;21436;52.348;20.928;2022-07-12T03:28:17;8.45;;;6.63;;
35326;SDS011;21436;52.348;20.928;2022-07-12T03:30:44;10.48;;;6.45;;
35326;SDS011;21436;52.348;20.928;2022-07-12T03:33:12;7.03;;;6.13;;
35326;SDS011;21436;52.348;20.928;2022-07-12T03:35:39;12.57;;;7.18;;
35326;SDS011;21436;52.348;20.928;2022-07-12T03:38:07;14.05;;;6.45;;
35326;SDS011;21436;52.348;20.928;2022-07-12T03:40:34;7.32;;;6.07;;
35326;SDS011;21436;52.348;20.928;2022-07-12T03:43:02;8.55;;;6.28;;
35326;SDS011;21436;52.348;20.928;2022-07-12T03:45:30;10.00;;;6.90;;
35326;SDS011;21436;52.348;20.928;2022-07-12T03:47:57;12.73;;;6.10;;
35326;SDS011;21436;52.348;20.928;2022-07-12T03:50:24;10.50;;;6.68;;
35326;SDS011;21436;52.348;20.928;2022-07-12T03:52:52;8.90;;;6.30;;
35326;SDS011;21436;52.348;20.928;2022-07-12T03:55:20;8.02;;;5.80;;
35326;SDS011;21436;52.348;20.928;2022-07-12T03:57:48;14.23;;;6.38;;
35326;SDS011;21436;52.348;20.928;2022-07-12T04:00:16;7.07;;;5.70;;
35326;SDS011;21436;52.348;20.928;2022-07-12T04:02:43;8.60;;;6.57;;
35326;SDS011;21436;52.348;20.928;2022-07-12T04:05:12;11.63;;;6.40;;
35326;SDS011;21436;52.348;20.928;2022-07-12T04:07:40;10.13;;;5.97;;
35326;SDS011;21436;52.348;20.928;2022-07-12T04:10:08;11.77;;;6.53;;
35326;SDS011;21436;52.348;20.928;2022-07-12T04:12:36;9.30;;;6.65;;
35326;SDS011;21436;52.348;20.928;2022-07-12T04:15:04;10.20;;;6.03;;
35326;SDS011;21436;52.348;20.928;2022-07-12T04:17:33;11.38;;;6.32;;
35326;SDS011;21436;52.348;20.928;2022-07-12T04:20:00;14.95;;;6.32;;
35326;SDS011;21436;52.348;20.928;2022-07-12T04:22:28;8.90;;;6.50;;
35326;SDS011;21436;52.348;20.928;2022-07-12T04:24:55;11.43;;;6.47;;
35326;SDS011;21436;52.348;20.928;2022-07-12T04:27:23;10.93;;;7.15;;
35326;SDS011;21436;52.348;20.928;2022-07-12T04:29:53;11.73;;;7.30;;
35326;SDS011;21436;52.348;20.928;2022-07-12T04:35:22;11.82;;;6.63;;
35326;SDS011;21436;52.348;20.928;2022-07-12T04:37:49;11.90;;;6.95;;
35326;SDS011;21436;52.348;20.928;2022-07-12T04:40:16;9.30;;;7.05;;
35326;SDS011;21436;52.348;20.928;2022-07-12T04:42:44;10.60;;;7.15;;
35326;SDS011;21436;52.348;20.928;2022-07-12T04:45:11;8.23;;;6.50;;
35326;SDS011;21436;52.348;20.928;2022-07-12T04:47:39;13.45;;;7.18;;
35326;SDS011;21436;52.348;20.928;2022-07-12T04:50:07;9.70;;;6.95;;
35326;SDS011;21436;52.348;20.928;2022-07-12T04:52:34;11.35;;;6.70;;
35326;SDS011;21436;52.348;20.928;2022-07-12T04:55:03;13.93;;;7.80;;
35326;SDS011;21436;52.348;20.928;2022-07-12T04:57:31;13.15;;;7.80;;
35326;SDS011;21436;52.348;20.928;2022-07-12T04:59:59;10.85;;;7.30;;
35326;SDS011;21436;52.348;20.928;2022-07-12T05:02:27;13.45;;;7.20;;
35326;SDS011;21436;52.348;20.928;2022-07-12T05:04:54;10.13;;;6.55;;
35326;SDS011;21436;52.348;20.928;2022-07-12T05:07:22;9.82;;;6.70;;
35326;SDS011;21436;52.348;20.928;2022-07-12T05:09:50;9.82;;;6.57;;
35326;SDS011;21436;52.348;20.928;2022-07-12T05:12:18;10.75;;;6.28;;
35326;SDS011;21436;52.348;20.928;2022-07-12T05:14:45;7.47;;;6.05;;
35326;SDS011;21436;52.348;20.928;2022-07-12T05:17:13;12.23;;;6.13;;
35326;SDS011;21436;52.348;20.928;2022-07-12T05:19:40;9.00;;;5.95;;
35326;SDS011;21436;52.348;20.928;2022-07-12T05:22:08;9.95;;;6.20;;
35326;SDS011;21436;52.348;20.928;2022-07-12T05:24:36;10.90;;;5.85;;
35326;SDS011;21436;52.348;20.928;2022-07-12T05:27:04;6.05;;;5.15;;
35326;SDS011;21436;52.348;20.928;2022-07-12T05:29:31;13.68;;;4.97;;
35326;SDS011;21436;52.348;20.928;2022-07-12T05:31:59;7.15;;;5.13;;
35326;SDS011;21436;52.348;20.928;2022-07-12T05:34:36;7.40;;;4.85;;
35326;SDS011;21436;52.348;20.928;2022-07-12T05:37:05;6.20;;;4.90;;
35326;SDS011;21436;52.348;20.928;2022-07-12T05:39:33;6.25;;;4.85;;
35326;SDS011;21436;52.348;20.928;2022-07-12T05:42:00;7.20;;;4.40;;
35326;SDS011;21436;52.348;20.928;2022-07-12T05:44:28;6.57;;;4.18;;
35326;SDS011;21436;52.348;20.928;2022-07-12T05:46:56;6.35;;;4.32;;
35326;SDS011;21436;52.348;20.928;2022-07-12T05:49:23;7.80;;;4.03;;
35326;SDS011;21436;52.348;20.928;2022-07-12T05:51:51;5.50;;;4.82;;
35326;SDS011;21436;52.348;20.928;2022-07-12T05:54:37;7.38;;;5.60;;
35326;SDS011;21436;52.348;20.928;2022-07-12T05:57:04;6.45;;;4.50;;
35326;SDS011;21436;52.348;20.928;2022-07-12T05:59:34;6.60;;;5.43;;
35326;SDS011;21436;52.348;20.928;2022-07-12T06:02:02;5.35;;;4.85;;
35326;SDS011;21436;52.348;20.928;2022-07-12T06:04:31;5.55;;;4.80;;
35326;SDS011;21436;52.348;20.928;2022-07-12T06:06:58;7.47;;;4.88;;
35326;SDS011;21436;52.348;20.928;2022-07-12T06:09:26;9.07;;;5.32;;
35326;SDS011;21436;52.348;20.928;2022-07-12T06:11:54;5.72;;;5.22;;
35326;SDS011;21436;52.348;20.928;2022-07-12T06:14:22;5.55;;;4.57;;
35326;SDS011;21436;52.348;20.928;2022-07-12T06:16:49;7.10;;;4.50;;
35326;SDS011;21436;52.348;20.928;2022-07-12T06:19:17;6.97;;;5.00;;
35326;SDS011;21436;52.348;20.928;2022-07-12T06:21:44;5.18;;;4.00;;
35326;SDS011;21436;52.348;20.928;2022-07-12T06:24:12;7.28;;;4.40;;
35326;SDS011;21436;52.348;20.928;2022-07-12T06:26:39;7.85;;;4.22;;
35326;SDS011;21436;52.348;20.928;2022-07-12T06:29:07;8.38;;;3.40;;
35326;SDS011;21436;52.348;20.928;2022-07-12T06:31:35;4.30;;;3.70;;
35326;SDS011;21436;52.348;20.928;2022-07-12T06:34:03;7.03;;;3.33;;
35326;SDS011;21436;52.348;20.928;2022-07-12T06:36:31;6.45;;;2.60;;
35326;SDS011;21436;52.348;20.928;2022-07-12T06:38:59;6.32;;;2.22;;
35326;SDS011;21436;52.348;20.928;2022-07-12T06:41:26;2.35;;;1.83;;
35326;SDS011;21436;52.348;20.928;2022-07-12T06:43:56;3.08;;;1.90;;
35326;SDS011;21436;52.348;20.928;2022-07-12T06:46:23;2.38;;;1.83;;
35326;SDS011;21436;52.348;20.928;2022-07-12T06:48:51;3.28;;;1.60;;
35326;SDS011;21436;52.348;20.928;2022-07-12T06:51:19;5.05;;;2.05;;
35326;SDS011;21436;52.348;20.928;2022-07-12T06:53:46;4.13;;;1.67;;
35326;SDS011;21436;52.348;20.928;2022-07-12T06:56:14;4.13;;;1.73;;
35326;SDS011;21436;52.348;20.928;2022-07-12T06:58:42;5.00;;;1.65;;
35326;SDS011;21436;52.348;20.928;2022-07-12T07:01:09;6.35;;;2.00;;
35326;SDS011;21436;52.348;20.928;2022-07-12T07:03:37;2.25;;;2.03;;
35326;SDS011;21436;52.348;20.928;2022-07-12T07:06:04;4.15;;;1.65;;
35326;SDS011;21436;52.348;20.928;2022-07-12T07:08:33;3.58;;;1.80;;
35326;SDS011;21436;52.348;20.928;2022-07-12T07:11:00;6.30;;;2.20;;
35326;SDS011;21436;52.348;20.928;2022-07-12T07:13:28;2.95;;;1.83;;
35326;SDS011;21436;52.348;20.928;2022-07-12T07:15:55;3.50;;;1.60;;
35326;SDS011;21436;52.348;20.928;2022-07-12T07:18:23;2.72;;;1.73;;
35326;SDS011;21436;52.348;20.928;2022-07-12T07:20:51;2.22;;;1.48;;
35326;SDS011;21436;52.348;20.928;2022-07-12T07:23:18;1.70;;;1.50;;
35326;SDS011;21436;52.348;20.928;2022-07-12T07:25:46;4.13;;;1.67;;
35326;SDS011;21436;52.348;20.928;2022-07-12T07:28:13;1.73;;;1.52;;
35326;SDS011;21436;52.348;20.928;2022-07-12T07:30:49;11.35;;;2.13;;
35326;SDS011;21436;52.348;20.928;2022-07-12T07:33:22;2.20;;;1.75;;
35326;SDS011;21436;52.348;20.928;2022-07-12T07:35:51;6.43;;;2.00;;
35326;SDS011;21436;52.348;20.928;2022-07-12T07:38:19;2.92;;;1.58;;
35326;SDS011;21436;52.348;20.928;2022-07-12T07:40:47;2.35;;;1.85;;
35326;SDS011;21436;52.348;20.928;2022-07-12T07:43:14;5.57;;;2.10;;
35326;SDS011;21436;52.348;20.928;2022-07-12T07:45:42;1.45;;;1.35;;
35326;SDS011;21436;52.348;20.928;2022-07-12T07:48:09;9.38;;;2.00;;
35326;SDS011;21436;52.348;20.928;2022-07-12T07:50:52;2.10;;;1.90;;
35326;SDS011;21436;52.348;20.928;2022-07-12T07:53:23;3.42;;;3.22;;
35326;SDS011;21436;52.348;20.928;2022-07-12T07:55:54;10.90;;;2.70;;
35326;SDS011;21436;52.348;20.928;2022-07-12T07:58:25;2.30;;;2.20;;
35326;SDS011;21436;52.348;20.928;2022-07-12T08:00:56;6.97;;;2.42;;
35326;SDS011;21436;52.348;20.928;2022-07-12T08:03:26;3.63;;;2.10;;
35326;SDS011;21436;52.348;20.928;2022-07-12T08:06:00;4.53;;;2.67;;
35326;SDS011;21436;52.348;20.928;2022-07-12T08:08:30;3.63;;;3.35;;
35326;SDS011;21436;52.348;20.928;2022-07-12T08:11:19;10.63;;;2.05;;
35326;SDS011;21436;52.348;20.928;2022-07-12T08:13:48;6.45;;;2.08;;
35326;SDS011;21436;52.348;20.928;2022-07-12T08:16:19;9.60;;;2.70;;
35326;SDS011;21436;52.348;20.928;2022-07-12T08:18:46;3.92;;;2.10;;
35326;SDS011;21436;52.348;20.928;2022-07-12T08:21:14;8.27;;;2.35;;
35326;SDS011;21436;52.348;20.928;2022-07-12T08:23:42;2.40;;;1.80;;
35326;SDS011;21436;52.348;20.928;2022-07-12T08:26:09;2.40;;;2.30;;
35326;SDS011;21436;52.348;20.928;2022-07-12T08:28:37;4.03;;;3.53;;
35326;SDS011;21436;52.348;20.928;2022-07-12T08:31:04;4.50;;;2.45;;
35326;SDS011;21436;52.348;20.928;2022-07-12T08:33:32;7.80;;;2.15;;
35326;SDS011;21436;52.348;20.928;2022-07-12T08:35:59;4.10;;;2.30;;
35326;SDS011;21436;52.348;20.928;2022-07-12T08:38:27;5.55;;;2.35;;
35326;SDS011;21436;52.348;20.928;2022-07-12T08:40:55;3.08;;;2.20;;
35326;SDS011;21436;52.348;20.928;2022-07-12T08:43:25;3.83;;;2.20;;
35326;SDS011;21436;52.348;20.928;2022-07-12T08:46:01;2.33;;;2.13;;
35326;SDS011;21436;52.348;20.928;2022-07-12T08:48:30;3.47;;;1.95;;
35326;SDS011;21436;52.348;20.928;2022-07-12T08:51:02;1.70;;;1.60;;
35326;SDS011;21436;52.348;20.928;2022-07-12T08:53:31;2.25;;;1.60;;
35326;SDS011;21436;52.348;20.928;2022-07-12T08:55:59;5.72;;;2.05;;
35326;SDS011;21436;52.348;20.928;2022-07-12T08:58:26;4.60;;;1.88;;
35326;SDS011;21436;52.348;20.928;2022-07-12T09:00:54;5.35;;;2.05;;
35326;SDS011;21436;52.348;20.928;2022-07-12T09:03:22;3.60;;;2.40;;
35326;SDS011;21436;52.348;20.928;2022-07-12T09:08:28;4.70;;;2.70;;
35326;SDS011;21436;52.348;20.928;2022-07-12T09:11:02;3.88;;;3.53;;
35326;SDS011;21436;52.348;20.928;2022-07-12T09:16:19;3.55;;;3.35;;
35326;SDS011;21436;52.348;20.928;2022-07-12T09:18:48;5.55;;;2.78;;
35326;SDS011;21436;52.348;20.928;2022-07-12T09:21:23;4.00;;;3.15;;
35326;SDS011;21436;52.348;20.928;2022-07-12T09:23:52;3.70;;;2.60;;
35326;SDS011;21436;52.348;20.928;2022-07-12T09:26:32;3.90;;;2.70;;
35326;SDS011;21436;52.348;20.928;2022-07-12T09:31:45;5.72;;;3.00;;
35326;SDS011;21436;52.348;20.928;2022-07-12T09:34:34;2.78;;;2.55;;
35326;SDS011;21436;52.348;20.928;2022-07-12T09:37:20;5.05;;;2.45;;
35326;SDS011;21436;52.348;20.928;2022-07-12T09:39:48;6.65;;;2.70;;
35326;SDS011;21436;52.348;20.928;2022-07-12T09:42:16;2.90;;;2.33;;
35326;SDS011;21436;52.348;20.928;2022-07-12T09:44:52;2.30;;;2.10;;
35326;SDS011;21436;52.348;20.928;2022-07-12T09:47:20;3.65;;;2.20;;
35326;SDS011;21436;52.348;20.928;2022-07-12T09:49:48;4.68;;;2.20;;
35326;SDS011;21436;52.348;20.928;2022-07-12T09:52:19;4.40;;;1.90;;
35326;SDS011;21436;52.348;20.928;2022-07-12T09:54:54;2.00;;;1.90;;
35326;SDS011;21436;52.348;20.928;2022-07-12T09:59:54;4.25;;;2.03;;
35326;SDS011;21436;52.348;20.928;2022-07-12T10:02:22;2.95;;;1.80;;
35326;SDS011;21436;52.348;20.928;2022-07-12T10:04:50;8.32;;;1.77;;
35326;SDS011;21436;52.348;20.928;2022-07-12T10:07:18;5.78;;;1.75;;
35326;SDS011;21436;52.348;20.928;2022-07-12T10:09:52;11.65;;;1.85;;
35326;SDS011;21436;52.348;20.928;2022-07-12T10:12:21;4.70;;;1.90;;
35326;SDS011;21436;52.348;20.928;2022-07-12T10:14:51;1.77;;;1.60;;
35326;SDS011;21436;52.348;20.928;2022-07-12T10:17:25;4.00;;;1.77;;
35326;SDS011;21436;52.348;20.928;2022-07-12T10:28:01;2.15;;;1.48;;
35326;SDS011;21436;52.348;20.928;2022-07-12T10:30:30;4.60;;;1.52;;
35326;SDS011;21436;52.348;20.928;2022-07-12T10:32:58;2.75;;;1.40;;
35326;SDS011;21436;52.348;20.928;2022-07-12T10:35:28;5.28;;;1.63;;
35326;SDS011;21436;52.348;20.928;2022-07-12T10:40:44;13.93;;;1.50;;
35326;SDS011;21436;52.348;20.928;2022-07-12T10:43:13;7.35;;;1.60;;
35326;SDS011;21436;52.348;20.928;2022-07-12T10:45:43;3.35;;;1.10;;
35326;SDS011;21436;52.348;20.928;2022-07-12T10:48:18;7.28;;;1.25;;
35326;SDS011;21436;52.348;20.928;2022-07-12T10:53:32;3.60;;;1.30;;
35326;SDS011;21436;52.348;20.928;2022-07-12T10:56:08;5.60;;;1.38;;
35326;SDS011;21436;52.348;20.928;2022-07-12T10:58:37;5.95;;;1.50;;
35326;SDS011;21436;52.348;20.928;2022-07-12T11:01:06;3.22;;;1.30;;
35326;SDS011;21436;52.348;20.928;2022-07-12T11:06:17;4.95;;;1.08;;
35326;SDS011;21436;52.348;20.928;2022-07-12T11:08:53;2.22;;;1.05;;
35326;SDS011;21436;52.348;20.928;2022-07-12T11:11:33;2.85;;;1.02;;
35326;SDS011;21436;52.348;20.928;2022-07-12T11:14:01;3.10;;;0.98;;
35326;SDS011;21436;52.348;20.928;2022-07-12T11:16:29;1.90;;;1.10;;
35326;SDS011;21436;52.348;20.928;2022-07-12T11:18:58;2.75;;;1.00;;
35326;SDS011;21436;52.348;20.928;2022-07-12T11:21:25;4.43;;;0.98;;
35326;SDS011;21436;52.348;20.928;2022-07-12T11:23:53;3.90;;;1.13;;
35326;SDS011;21436;52.348;20.928;2022-07-12T11:26:21;9.23;;;1.05;;
35326;SDS011;21436;52.348;20.928;2022-07-12T11:28:49;1.88;;;0.95;;
35326;SDS011;21436;52.348;20.928;2022-07-12T11:31:18;6.55;;;1.20;;
35326;SDS011;21436;52.348;20.928;2022-07-12T11:33:47;4.03;;;1.15;;
35326;SDS011;21436;52.348;20.928;2022-07-12T11:36:16;2.28;;;0.82;;
35326;SDS011;21436;52.348;20.928;2022-07-12T11:38:45;5.40;;;1.20;;
35326;SDS011;21436;52.348;20.928;2022-07-12T11:41:13;3.33;;;1.10;;
35326;SDS011;21436;52.348;20.928;2022-07-12T11:43:42;4.13;;;1.20;;
35326;SDS011;21436;52.348;20.928;2022-07-12T11:46:10;1.30;;;0.90;;
35326;SDS011;21436;52.348;20.928;2022-07-12T11:48:38;7.88;;;1.25;;
35326;SDS011;21436;52.348;20.928;2022-07-12T11:51:09;3.50;;;0.95;;
35326;SDS011;21436;52.348;20.928;2022-07-12T11:53:38;3.15;;;0.90;;
35326;SDS011;21436;52.348;20.928;2022-07-12T11:56:06;1.30;;;0.80;;
35326;SDS011;21436;52.348;20.928;2022-07-12T11:58:35;2.75;;;0.90;;
35326;SDS011;21436;52.348;20.928;2022-07-12T12:01:12;7.00;;;1.10;;
35326;SDS011;21436;52.348;20.928;2022-07-12T12:03:43;1.10;;;0.90;;
35326;SDS011;21436;52.348;20.928;2022-07-12T12:08:40;3.53;;;1.08;;
35326;SDS011;21436;52.348;20.928;2022-07-12T12:11:08;2.28;;;0.82;;
35326;SDS011;21436;52.348;20.928;2022-07-12T12:13:36;5.15;;;1.05;;
35326;SDS011;21436;52.348;20.928;2022-07-12T12:16:04;5.68;;;1.13;;
35326;SDS011;21436;52.348;20.928;2022-07-12T12:18:39;4.75;;;1.25;;
35326;SDS011;21436;52.348;20.928;2022-07-12T12:23:37;5.00;;;1.35;;
35326;SDS011;21436;52.348;20.928;2022-07-12T12:28:45;1.27;;;0.90;;
35326;SDS011;21436;52.348;20.928;2022-07-12T12:31:14;3.65;;;0.90;;
35326;SDS011;21436;52.348;20.928;2022-07-12T12:33:45;0.98;;;0.90;;
35326;SDS011;21436;52.348;20.928;2022-07-12T12:36:23;2.58;;;0.88;;
35326;SDS011;21436;52.348;20.928;2022-07-12T12:41:20;1.48;;;1.00;;
35326;SDS011;21436;52.348;20.928;2022-07-12T12:44:00;2.45;;;0.80;;
35326;SDS011;21436;52.348;20.928;2022-07-12T12:49:47;2.33;;;0.80;;
35326;SDS011;21436;52.348;20.928;2022-07-12T12:52:23;8.98;;;0.90;;
35326;SDS011;21436;52.348;20.928;2022-07-12T12:54:52;1.52;;;0.85;;
35326;SDS011;21436;52.348;20.928;2022-07-12T12:57:21;3.20;;;0.82;;
35326;SDS011;21436;52.348;20.928;2022-07-12T12:59:48;6.32;;;1.10;;
35326;SDS011;21436;52.348;20.928;2022-07-12T13:02:16;5.13;;;1.10;;
35326;SDS011;21436;52.348;20.928;2022-07-12T13:04:44;1.88;;;0.90;;
35326;SDS011;21436;52.348;20.928;2022-07-12T13:07:11;2.92;;;1.10;;
35326;SDS011;21436;52.348;20.928;2022-07-12T13:09:40;3.90;;;0.88;;
35326;SDS011;21436;52.348;20.928;2022-07-12T13:12:08;4.00;;;0.80;;
35326;SDS011;21436;52.348;20.928;2022-07-12T13:14:36;1.63;;;0.70;;
35326;SDS011;21436;52.348;20.928;2022-07-12T13:17:04;2.53;;;0.90;;
35326;SDS011;21436;52.348;20.928;2022-07-12T13:19:32;4.57;;;1.02;;
35326;SDS011;21436;52.348;20.928;2022-07-12T13:22:00;7.55;;;1.40;;
35326;SDS011;21436;52.348;20.928;2022-07-12T13:24:27;3.20;;;0.85;;
35326;SDS011;21436;52.348;20.928;2022-07-12T13:26:55;1.70;;;1.05;;
35326;SDS011;21436;52.348;20.928;2022-07-12T13:29:22;1.83;;;0.80;;
35326;SDS011;21436;52.348;20.928;2022-07-12T13:31:51;1.70;;;0.82;;
35326;SDS011;21436;52.348;20.928;2022-07-12T13:34:23;6.22;;;0.88;;
35326;SDS011;21436;52.348;20.928;2022-07-12T13:36:51;15.15;;;1.67;;
35326;SDS011;21436;52.348;20.928;2022-07-12T13:39:18;4.18;;;1.20;;
35326;SDS011;21436;52.348;20.928;2022-07-12T13:42:05;2.45;;;1.35;;
35326;SDS011;21436;52.348;20.928;2022-07-12T13:44:33;1.25;;;0.70;;
35326;SDS011;21436;52.348;20.928;2022-07-12T13:47:00;5.35;;;0.90;;
35326;SDS011;21436;52.348;20.928;2022-07-12T13:49:28;2.67;;;0.80;;
35326;SDS011;21436;52.348;20.928;2022-07-12T13:51:55;5.10;;;0.80;;
35326;SDS011;21436;52.348;20.928;2022-07-12T13:54:23;1.55;;;0.80;;
35326;SDS011;21436;52.348;20.928;2022-07-12T13:56:50;2.28;;;0.88;;
35326;SDS011;21436;52.348;20.928;2022-07-12T13:59:18;3.30;;;1.00;;
35326;SDS011;21436;52.348;20.928;2022-07-12T14:01:45;4.15;;;0.95;;
35326;SDS011;21436;52.348;20.928;2022-07-12T14:04:13;4.45;;;0.82;;
35326;SDS011;21436;52.348;20.928;2022-07-12T14:06:40;1.88;;;0.82;;
35326;SDS011;21436;52.348;20.928;2022-07-12T14:09:08;1.75;;;0.88;;
35326;SDS011;21436;52.348;20.928;2022-07-12T14:11:35;6.55;;;0.95;;
35326;SDS011;21436;52.348;20.928;2022-07-12T14:14:03;3.67;;;1.00;;
35326;SDS011;21436;52.348;20.928;2022-07-12T14:16:31;3.33;;;0.77;;
35326;SDS011;21436;52.348;20.928;2022-07-12T14:18:59;11.07;;;1.10;;
35326;SDS011;21436;52.348;20.928;2022-07-12T14:21:28;4.30;;;0.93;;
35326;SDS011;21436;52.348;20.928;2022-07-12T14:23:56;2.15;;;0.85;;
35326;SDS011;21436;52.348;20.928;2022-07-12T14:26:27;6.20;;;0.80;;
35326;SDS011;21436;52.348;20.928;2022-07-12T14:28:55;2.63;;;0.77;;
35326;SDS011;21436;52.348;20.928;2022-07-12T14:31:23;1.85;;;0.85;;
35326;SDS011;21436;52.348;20.928;2022-07-12T14:33:51;3.58;;;0.88;;
35326;SDS011;21436;52.348;20.928;2022-07-12T14:36:19;5.30;;;1.20;;
35326;SDS011;21436;52.348;20.928;2022-07-12T14:38:46;5.88;;;0.80;;
35326;SDS011;21436;52.348;20.928;2022-07-12T14:41:19;6.68;;;0.90;;
35326;SDS011;21436;52.348;20.928;2022-07-12T14:43:46;3.92;;;0.68;;
35326;SDS011;21436;52.348;20.928;2022-07-12T14:46:16;9.00;;;0.98;;
35326;SDS011;21436;52.348;20.928;2022-07-12T14:48:44;4.38;;;0.80;;
35326;SDS011;21436;52.348;20.928;2022-07-12T14:51:12;3.30;;;0.88;;
35326;SDS011;21436;52.348;20.928;2022-07-12T14:53:43;4.57;;;1.10;;
35326;SDS011;21436;52.348;20.928;2022-07-12T14:56:10;2.08;;;0.80;;
35326;SDS011;21436;52.348;20.928;2022-07-12T14:58:38;5.07;;;0.93;;
35326;SDS011;21436;52.348;20.928;2022-07-12T15:01:05;2.20;;;0.63;;
35326;SDS011;21436;52.348;20.928;2022-07-12T15:03:33;2.47;;;0.75;;
35326;SDS011;21436;52.348;20.928;2022-07-12T15:06:01;6.07;;;1.17;;
35326;SDS011;21436;52.348;20.928;2022-07-12T15:08:30;0.90;;;0.90;;
35326;SDS011;21436;52.348;20.928;2022-07-12T15:10:58;6.35;;;0.80;;
35326;SDS011;21436;52.348;20.928;2022-07-12T15:13:25;2.42;;;1.38;;
35326;SDS011;21436;52.348;20.928;2022-07-12T15:15:56;1.98;;;1.00;;
35326;SDS011;21436;52.348;20.928;2022-07-12T15:18:24;2.67;;;1.05;;
35326;SDS011;21436;52.348;20.928;2022-07-12T15:20:51;3.25;;;0.80;;
35326;SDS011;21436;52.348;20.928;2022-07-12T15:23:19;3.15;;;0.75;;
35326;SDS011;21436;52.348;20.928;2022-07-12T15:25:47;3.50;;;0.60;;